sensor_id;sensor_type;location;lat;lon;timestamp;P1;durP1;ratioP1;P2;durP2;ratioP2
72406;SDS011;60396;47.550;18.828;2023-07-31T00:01:46;6.10;;;2.50;;
72406;SDS011;60396;47.550;18.828;2023-07-31T00:04:14;7.50;;;2.58;;
72406;SDS011;60396;47.550;18.828;2023-07-31T00:06:42;6.60;;;2.87;;
72406;SDS011;60396;47.550;18.828;2023-07-31T00:09:09;7.12;;;2.53;;
72406;SDS011;60396;47.550;18.828;2023-07-31T00:11:37;7.15;;;2.83;;
72406;SDS011;60396;47.550;18.828;2023-07-31T00:14:05;6.37;;;2.60;;
72406;SDS011;60396;47.550;18.828;2023-07-31T00:16:32;6.43;;;2.72;;
72406;SDS011;60396;47.550;18.828;2023-07-31T00:19:01;9.65;;;2.70;;
72406;SDS011;60396;47.550;18.828;2023-07-31T00:21:28;6.25;;;2.75;;
72406;SDS011;60396;47.550;18.828;2023-07-31T00:23:55;6.65;;;3.10;;
72406;SDS011;60396;47.550;18.828;2023-07-31T00:26:23;6.90;;;2.63;;
72406;SDS011;60396;47.550;18.828;2023-07-31T00:28:51;6.30;;;2.60;;
72406;SDS011;60396;47.550;18.828;2023-07-31T00:31:18;6.10;;;2.50;;
72406;SDS011;60396;47.550;18.828;2023-07-31T00:33:47;8.82;;;3.28;;
72406;SDS011;60396;47.550;18.828;2023-07-31T00:36:15;9.25;;;3.30;;
72406;SDS011;60396;47.550;18.828;2023-07-31T00:38:43;7.63;;;2.90;;
72406;SDS011;60396;47.550;18.828;2023-07-31T00:41:11;7.25;;;2.95;;
72406;SDS011;60396;47.550;18.828;2023-07-31T00:43:38;6.75;;;2.85;;
72406;SDS011;60396;47.550;18.828;2023-07-31T00:46:07;7.90;;;3.28;;
72406;SDS011;60396;47.550;18.828;2023-07-31T00:48:35;9.75;;;3.40;;
72406;SDS011;60396;47.550;18.828;2023-07-31T00:51:03;6.90;;;3.03;;
72406;SDS011;60396;47.550;18.828;2023-07-31T00:53:30;7.60;;;3.35;;
72406;SDS011;60396;47.550;18.828;2023-07-31T00:55:58;7.50;;;3.40;;
72406;SDS011;60396;47.550;18.828;2023-07-31T00:58:26;9.63;;;3.08;;
72406;SDS011;60396;47.550;18.828;2023-07-31T01:00:53;7.40;;;3.20;;
72406;SDS011;60396;47.550;18.828;2023-07-31T01:03:24;8.47;;;3.50;;
72406;SDS011;60396;47.550;18.828;2023-07-31T01:06:08;9.30;;;3.28;;
72406;SDS011;60396;47.550;18.828;2023-07-31T01:11:30;7.03;;;3.37;;
72406;SDS011;60396;47.550;18.828;2023-07-31T01:14:00;6.90;;;2.92;;
72406;SDS011;60396;47.550;18.828;2023-07-31T01:16:29;8.27;;;3.17;;
72406;SDS011;60396;47.550;18.828;2023-07-31T01:18:56;8.55;;;3.17;;
72406;SDS011;60396;47.550;18.828;2023-07-31T01:27:00;9.60;;;3.37;;
72406;SDS011;60396;47.550;18.828;2023-07-31T01:29:40;7.37;;;3.00;;
72406;SDS011;60396;47.550;18.828;2023-07-31T01:32:12;8.85;;;3.20;;
72406;SDS011;60396;47.550;18.828;2023-07-31T01:34:41;6.95;;;2.83;;
72406;SDS011;60396;47.550;18.828;2023-07-31T01:37:09;7.80;;;2.97;;
72406;SDS011;60396;47.550;18.828;2023-07-31T01:39:37;6.43;;;2.60;;
72406;SDS011;60396;47.550;18.828;2023-07-31T01:42:05;6.90;;;2.40;;
72406;SDS011;60396;47.550;18.828;2023-07-31T01:44:33;6.12;;;2.17;;
72406;SDS011;60396;47.550;18.828;2023-07-31T01:47:00;7.12;;;2.47;;
72406;SDS011;60396;47.550;18.828;2023-07-31T01:49:28;4.80;;;1.87;;
72406;SDS011;60396;47.550;18.828;2023-07-31T01:51:55;6.35;;;2.40;;
72406;SDS011;60396;47.550;18.828;2023-07-31T01:54:23;7.60;;;2.13;;
72406;SDS011;60396;47.550;18.828;2023-07-31T01:56:51;6.32;;;2.65;;
72406;SDS011;60396;47.550;18.828;2023-07-31T01:59:19;7.03;;;2.22;;
72406;SDS011;60396;47.550;18.828;2023-07-31T02:01:47;5.87;;;2.00;;
72406;SDS011;60396;47.550;18.828;2023-07-31T02:04:15;6.75;;;2.05;;
72406;SDS011;60396;47.550;18.828;2023-07-31T02:06:44;6.73;;;2.10;;
72406;SDS011;60396;47.550;18.828;2023-07-31T02:09:11;5.72;;;2.10;;
72406;SDS011;60396;47.550;18.828;2023-07-31T02:11:42;6.10;;;2.20;;
72406;SDS011;60396;47.550;18.828;2023-07-31T02:14:09;6.50;;;2.40;;
72406;SDS011;60396;47.550;18.828;2023-07-31T02:16:37;5.85;;;2.15;;
72406;SDS011;60396;47.550;18.828;2023-07-31T02:19:05;6.03;;;1.97;;
72406;SDS011;60396;47.550;18.828;2023-07-31T02:21:33;6.32;;;2.03;;
72406;SDS011;60396;47.550;18.828;2023-07-31T02:24:00;7.12;;;2.12;;
72406;SDS011;60396;47.550;18.828;2023-07-31T02:26:28;6.57;;;1.95;;
72406;SDS011;60396;47.550;18.828;2023-07-31T02:28:56;8.00;;;2.17;;
72406;SDS011;60396;47.550;18.828;2023-07-31T02:31:23;7.67;;;1.90;;
72406;SDS011;60396;47.550;18.828;2023-07-31T02:33:51;7.93;;;1.75;;
72406;SDS011;60396;47.550;18.828;2023-07-31T02:36:19;4.87;;;1.85;;
72406;SDS011;60396;47.550;18.828;2023-07-31T02:38:46;7.22;;;2.10;;
72406;SDS011;60396;47.550;18.828;2023-07-31T02:41:14;7.32;;;1.95;;
72406;SDS011;60396;47.550;18.828;2023-07-31T02:43:42;5.37;;;1.57;;
72406;SDS011;60396;47.550;18.828;2023-07-31T02:46:09;8.40;;;2.05;;
72406;SDS011;60396;47.550;18.828;2023-07-31T02:48:37;6.57;;;1.95;;
72406;SDS011;60396;47.550;18.828;2023-07-31T02:51:05;5.00;;;1.67;;
72406;SDS011;60396;47.550;18.828;2023-07-31T02:53:32;10.35;;;1.73;;
72406;SDS011;60396;47.550;18.828;2023-07-31T02:56:00;7.30;;;1.80;;
72406;SDS011;60396;47.550;18.828;2023-07-31T02:58:28;6.07;;;1.90;;
72406;SDS011;60396;47.550;18.828;2023-07-31T03:00:55;6.20;;;1.90;;
72406;SDS011;60396;47.550;18.828;2023-07-31T03:03:26;5.07;;;1.80;;
72406;SDS011;60396;47.550;18.828;2023-07-31T03:05:55;6.15;;;1.87;;
72406;SDS011;60396;47.550;18.828;2023-07-31T03:08:24;4.83;;;1.63;;
72406;SDS011;60396;47.550;18.828;2023-07-31T03:10:51;6.10;;;2.15;;
72406;SDS011;60396;47.550;18.828;2023-07-31T03:13:22;6.65;;;1.67;;
72406;SDS011;60396;47.550;18.828;2023-07-31T03:15:50;6.30;;;1.80;;
72406;SDS011;60396;47.550;18.828;2023-07-31T03:18:18;7.22;;;1.60;;
72406;SDS011;60396;47.550;18.828;2023-07-31T03:20:45;5.43;;;1.50;;
72406;SDS011;60396;47.550;18.828;2023-07-31T03:23:13;7.07;;;1.83;;
72406;SDS011;60396;47.550;18.828;2023-07-31T03:25:42;6.85;;;1.65;;
72406;SDS011;60396;47.550;18.828;2023-07-31T03:28:23;5.60;;;1.50;;
72406;SDS011;60396;47.550;18.828;2023-07-31T03:30:51;5.40;;;1.70;;
72406;SDS011;60396;47.550;18.828;2023-07-31T03:33:19;5.33;;;1.20;;
72406;SDS011;60396;47.550;18.828;2023-07-31T03:35:47;5.37;;;1.62;;
72406;SDS011;60396;47.550;18.828;2023-07-31T03:38:15;5.47;;;1.87;;
72406;SDS011;60396;47.550;18.828;2023-07-31T03:40:42;7.07;;;1.45;;
72406;SDS011;60396;47.550;18.828;2023-07-31T03:43:10;4.40;;;1.50;;
72406;SDS011;60396;47.550;18.828;2023-07-31T03:45:39;7.40;;;1.50;;
72406;SDS011;60396;47.550;18.828;2023-07-31T03:48:06;6.15;;;1.35;;
72406;SDS011;60396;47.550;18.828;2023-07-31T03:50:35;5.05;;;1.40;;
72406;SDS011;60396;47.550;18.828;2023-07-31T03:53:03;5.28;;;1.52;;
72406;SDS011;60396;47.550;18.828;2023-07-31T03:55:30;5.40;;;1.37;;
72406;SDS011;60396;47.550;18.828;2023-07-31T03:57:58;4.03;;;1.30;;
72406;SDS011;60396;47.550;18.828;2023-07-31T04:00:27;7.30;;;1.55;;
72406;SDS011;60396;47.550;18.828;2023-07-31T04:02:55;4.35;;;1.25;;
72406;SDS011;60396;47.550;18.828;2023-07-31T04:05:23;5.07;;;1.20;;
72406;SDS011;60396;47.550;18.828;2023-07-31T04:07:50;8.75;;;1.33;;
72406;SDS011;60396;47.550;18.828;2023-07-31T04:10:18;6.63;;;1.50;;
72406;SDS011;60396;47.550;18.828;2023-07-31T04:12:46;4.93;;;1.58;;
72406;SDS011;60396;47.550;18.828;2023-07-31T04:15:13;5.07;;;1.48;;
72406;SDS011;60396;47.550;18.828;2023-07-31T04:17:41;6.22;;;1.65;;
72406;SDS011;60396;47.550;18.828;2023-07-31T04:20:09;5.07;;;1.30;;
72406;SDS011;60396;47.550;18.828;2023-07-31T04:22:37;4.80;;;1.10;;
72406;SDS011;60396;47.550;18.828;2023-07-31T04:25:05;6.45;;;1.37;;
72406;SDS011;60396;47.550;18.828;2023-07-31T04:27:33;4.32;;;1.30;;
72406;SDS011;60396;47.550;18.828;2023-07-31T04:30:00;5.47;;;1.30;;
72406;SDS011;60396;47.550;18.828;2023-07-31T04:32:28;4.07;;;1.23;;
72406;SDS011;60396;47.550;18.828;2023-07-31T04:34:56;6.10;;;1.17;;
72406;SDS011;60396;47.550;18.828;2023-07-31T04:37:24;4.95;;;1.30;;
72406;SDS011;60396;47.550;18.828;2023-07-31T04:39:52;5.28;;;1.30;;
72406;SDS011;60396;47.550;18.828;2023-07-31T04:42:19;6.72;;;1.42;;
72406;SDS011;60396;47.550;18.828;2023-07-31T04:44:47;6.40;;;1.40;;
72406;SDS011;60396;47.550;18.828;2023-07-31T04:47:15;7.87;;;1.50;;
72406;SDS011;60396;47.550;18.828;2023-07-31T04:49:42;3.80;;;1.12;;
72406;SDS011;60396;47.550;18.828;2023-07-31T04:52:10;4.60;;;1.27;;
72406;SDS011;60396;47.550;18.828;2023-07-31T04:54:38;6.78;;;1.10;;
72406;SDS011;60396;47.550;18.828;2023-07-31T04:57:05;4.85;;;1.48;;
72406;SDS011;60396;47.550;18.828;2023-07-31T04:59:33;5.23;;;1.17;;
72406;SDS011;60396;47.550;18.828;2023-07-31T05:02:02;4.18;;;1.10;;
72406;SDS011;60396;47.550;18.828;2023-07-31T05:04:29;4.10;;;1.02;;
72406;SDS011;60396;47.550;18.828;2023-07-31T05:06:57;4.68;;;1.27;;
72406;SDS011;60396;47.550;18.828;2023-07-31T05:09:24;3.92;;;1.00;;
72406;SDS011;60396;47.550;18.828;2023-07-31T05:11:52;4.97;;;1.10;;
72406;SDS011;60396;47.550;18.828;2023-07-31T05:14:20;3.67;;;1.00;;
72406;SDS011;60396;47.550;18.828;2023-07-31T05:16:47;6.85;;;1.30;;
72406;SDS011;60396;47.550;18.828;2023-07-31T05:19:15;7.03;;;1.27;;
72406;SDS011;60396;47.550;18.828;2023-07-31T05:21:42;5.90;;;1.37;;
72406;SDS011;60396;47.550;18.828;2023-07-31T05:24:10;6.43;;;1.20;;
72406;SDS011;60396;47.550;18.828;2023-07-31T05:26:38;4.43;;;1.02;;
72406;SDS011;60396;47.550;18.828;2023-07-31T05:29:06;5.82;;;1.20;;
72406;SDS011;60396;47.550;18.828;2023-07-31T05:31:34;4.80;;;0.93;;
72406;SDS011;60396;47.550;18.828;2023-07-31T05:34:01;7.03;;;1.25;;
72406;SDS011;60396;47.550;18.828;2023-07-31T05:36:29;3.93;;;1.00;;
72406;SDS011;60396;47.550;18.828;2023-07-31T05:38:57;4.87;;;1.17;;
72406;SDS011;60396;47.550;18.828;2023-07-31T05:41:24;7.37;;;1.33;;
72406;SDS011;60396;47.550;18.828;2023-07-31T05:43:52;6.75;;;1.20;;
72406;SDS011;60396;47.550;18.828;2023-07-31T05:46:20;7.70;;;1.30;;
72406;SDS011;60396;47.550;18.828;2023-07-31T05:48:47;8.63;;;1.30;;
72406;SDS011;60396;47.550;18.828;2023-07-31T05:51:15;4.80;;;1.00;;
72406;SDS011;60396;47.550;18.828;2023-07-31T05:53:43;5.60;;;1.10;;
72406;SDS011;60396;47.550;18.828;2023-07-31T05:56:11;5.00;;;1.30;;
72406;SDS011;60396;47.550;18.828;2023-07-31T05:58:38;6.75;;;1.20;;
72406;SDS011;60396;47.550;18.828;2023-07-31T06:01:06;4.40;;;0.90;;
72406;SDS011;60396;47.550;18.828;2023-07-31T06:03:34;6.40;;;1.40;;
72406;SDS011;60396;47.550;18.828;2023-07-31T06:06:02;6.53;;;1.12;;
72406;SDS011;60396;47.550;18.828;2023-07-31T06:08:30;4.80;;;1.35;;
72406;SDS011;60396;47.550;18.828;2023-07-31T06:10:58;4.37;;;1.10;;
72406;SDS011;60396;47.550;18.828;2023-07-31T06:13:26;3.40;;;0.90;;
72406;SDS011;60396;47.550;18.828;2023-07-31T06:15:53;7.45;;;0.95;;
72406;SDS011;60396;47.550;18.828;2023-07-31T06:18:21;5.37;;;0.95;;
72406;SDS011;60396;47.550;18.828;2023-07-31T06:20:49;4.57;;;1.00;;
72406;SDS011;60396;47.550;18.828;2023-07-31T06:23:20;6.87;;;1.08;;
72406;SDS011;60396;47.550;18.828;2023-07-31T06:25:48;4.90;;;0.90;;
72406;SDS011;60396;47.550;18.828;2023-07-31T06:28:16;3.12;;;0.93;;
72406;SDS011;60396;47.550;18.828;2023-07-31T06:30:44;5.15;;;1.20;;
72406;SDS011;60396;47.550;18.828;2023-07-31T06:33:12;3.25;;;0.80;;
72406;SDS011;60396;47.550;18.828;2023-07-31T06:35:39;4.75;;;1.00;;
72406;SDS011;60396;47.550;18.828;2023-07-31T06:38:07;4.93;;;0.90;;
72406;SDS011;60396;47.550;18.828;2023-07-31T06:40:35;3.87;;;1.05;;
72406;SDS011;60396;47.550;18.828;2023-07-31T06:43:03;5.03;;;1.48;;
72406;SDS011;60396;47.550;18.828;2023-07-31T06:45:35;7.35;;;0.95;;
72406;SDS011;60396;47.550;18.828;2023-07-31T06:48:04;4.47;;;1.10;;
72406;SDS011;60396;47.550;18.828;2023-07-31T06:50:31;4.17;;;1.00;;
72406;SDS011;60396;47.550;18.828;2023-07-31T06:52:59;6.50;;;1.20;;
72406;SDS011;60396;47.550;18.828;2023-07-31T06:55:27;5.12;;;0.90;;
72406;SDS011;60396;47.550;18.828;2023-07-31T06:57:55;5.85;;;1.05;;
72406;SDS011;60396;47.550;18.828;2023-07-31T07:00:24;4.53;;;1.27;;
72406;SDS011;60396;47.550;18.828;2023-07-31T07:02:52;11.97;;;1.20;;
72406;SDS011;60396;47.550;18.828;2023-07-31T07:05:19;4.55;;;1.20;;
72406;SDS011;60396;47.550;18.828;2023-07-31T07:07:48;10.18;;;1.70;;
72406;SDS011;60396;47.550;18.828;2023-07-31T07:10:16;11.30;;;2.37;;
72406;SDS011;60396;47.550;18.828;2023-07-31T07:12:44;9.40;;;2.00;;
72406;SDS011;60396;47.550;18.828;2023-07-31T07:15:12;9.70;;;1.40;;
72406;SDS011;60396;47.550;18.828;2023-07-31T07:17:39;7.82;;;1.70;;
72406;SDS011;60396;47.550;18.828;2023-07-31T07:20:07;8.65;;;1.80;;
72406;SDS011;60396;47.550;18.828;2023-07-31T07:22:35;8.73;;;1.40;;
72406;SDS011;60396;47.550;18.828;2023-07-31T07:25:03;17.92;;;4.05;;
72406;SDS011;60396;47.550;18.828;2023-07-31T07:27:32;24.03;;;6.37;;
72406;SDS011;60396;47.550;18.828;2023-07-31T07:29:59;11.15;;;1.40;;
72406;SDS011;60396;47.550;18.828;2023-07-31T07:32:27;4.60;;;1.20;;
72406;SDS011;60396;47.550;18.828;2023-07-31T07:34:55;4.40;;;1.02;;
72406;SDS011;60396;47.550;18.828;2023-07-31T07:37:23;7.82;;;1.33;;
72406;SDS011;60396;47.550;18.828;2023-07-31T07:39:51;5.03;;;0.90;;
72406;SDS011;60396;47.550;18.828;2023-07-31T07:42:18;7.62;;;1.08;;
72406;SDS011;60396;47.550;18.828;2023-07-31T07:44:46;3.95;;;1.15;;
72406;SDS011;60396;47.550;18.828;2023-07-31T07:47:14;5.37;;;1.00;;
72406;SDS011;60396;47.550;18.828;2023-07-31T07:49:42;5.72;;;1.23;;
72406;SDS011;60396;47.550;18.828;2023-07-31T07:52:17;5.70;;;1.20;;
72406;SDS011;60396;47.550;18.828;2023-07-31T07:54:44;5.87;;;1.10;;
72406;SDS011;60396;47.550;18.828;2023-07-31T07:57:12;5.03;;;1.20;;
72406;SDS011;60396;47.550;18.828;2023-07-31T07:59:40;10.02;;;1.58;;
72406;SDS011;60396;47.550;18.828;2023-07-31T08:02:08;6.78;;;1.65;;
72406;SDS011;60396;47.550;18.828;2023-07-31T08:04:36;3.93;;;1.00;;
72406;SDS011;60396;47.550;18.828;2023-07-31T08:07:04;7.62;;;1.40;;
72406;SDS011;60396;47.550;18.828;2023-07-31T08:09:31;5.70;;;1.33;;
72406;SDS011;60396;47.550;18.828;2023-07-31T08:11:59;12.32;;;1.85;;
72406;SDS011;60396;47.550;18.828;2023-07-31T08:14:29;13.52;;;1.73;;
72406;SDS011;60396;47.550;18.828;2023-07-31T08:17:00;21.40;;;3.60;;
72406;SDS011;60396;47.550;18.828;2023-07-31T08:19:27;13.85;;;2.30;;
72406;SDS011;60396;47.550;18.828;2023-07-31T08:21:55;6.57;;;1.10;;
72406;SDS011;60396;47.550;18.828;2023-07-31T08:24:25;6.03;;;1.20;;
72406;SDS011;60396;47.550;18.828;2023-07-31T08:26:52;6.03;;;1.08;;
72406;SDS011;60396;47.550;18.828;2023-07-31T08:29:20;11.87;;;1.53;;
72406;SDS011;60396;47.550;18.828;2023-07-31T08:31:48;5.30;;;1.30;;
72406;SDS011;60396;47.550;18.828;2023-07-31T08:34:15;6.60;;;1.20;;
72406;SDS011;60396;47.550;18.828;2023-07-31T08:36:43;7.97;;;1.33;;
72406;SDS011;60396;47.550;18.828;2023-07-31T08:39:11;8.00;;;1.30;;
72406;SDS011;60396;47.550;18.828;2023-07-31T08:41:38;6.40;;;1.20;;
72406;SDS011;60396;47.550;18.828;2023-07-31T08:44:09;7.93;;;1.45;;
72406;SDS011;60396;47.550;18.828;2023-07-31T08:46:38;8.20;;;1.40;;
72406;SDS011;60396;47.550;18.828;2023-07-31T08:49:07;8.27;;;1.20;;
72406;SDS011;60396;47.550;18.828;2023-07-31T08:51:35;5.53;;;0.93;;
72406;SDS011;60396;47.550;18.828;2023-07-31T08:54:04;7.87;;;1.40;;
72406;SDS011;60396;47.550;18.828;2023-07-31T08:56:32;6.90;;;1.00;;
72406;SDS011;60396;47.550;18.828;2023-07-31T08:59:01;7.70;;;1.60;;
72406;SDS011;60396;47.550;18.828;2023-07-31T09:01:31;8.35;;;1.10;;
72406;SDS011;60396;47.550;18.828;2023-07-31T09:04:02;6.65;;;1.48;;
72406;SDS011;60396;47.550;18.828;2023-07-31T09:06:31;6.00;;;1.00;;
72406;SDS011;60396;47.550;18.828;2023-07-31T09:08:59;8.10;;;1.10;;
72406;SDS011;60396;47.550;18.828;2023-07-31T09:11:27;3.83;;;1.00;;
72406;SDS011;60396;47.550;18.828;2023-07-31T09:13:56;6.55;;;1.20;;
72406;SDS011;60396;47.550;18.828;2023-07-31T09:16:27;8.20;;;1.45;;
72406;SDS011;60396;47.550;18.828;2023-07-31T09:19:00;6.90;;;1.77;;
72406;SDS011;60396;47.550;18.828;2023-07-31T09:21:32;7.35;;;1.40;;
72406;SDS011;60396;47.550;18.828;2023-07-31T09:24:00;5.15;;;1.05;;
72406;SDS011;60396;47.550;18.828;2023-07-31T09:26:28;7.37;;;1.30;;
72406;SDS011;60396;47.550;18.828;2023-07-31T09:28:58;6.50;;;1.48;;
72406;SDS011;60396;47.550;18.828;2023-07-31T09:34:07;8.05;;;1.35;;
72406;SDS011;60396;47.550;18.828;2023-07-31T09:36:48;5.82;;;1.10;;
72406;SDS011;60396;47.550;18.828;2023-07-31T09:39:17;6.85;;;1.10;;
72406;SDS011;60396;47.550;18.828;2023-07-31T09:41:47;4.32;;;1.00;;
72406;SDS011;60396;47.550;18.828;2023-07-31T09:44:20;9.20;;;1.30;;
72406;SDS011;60396;47.550;18.828;2023-07-31T09:46:48;7.82;;;1.08;;
72406;SDS011;60396;47.550;18.828;2023-07-31T09:49:16;4.62;;;0.95;;
72406;SDS011;60396;47.550;18.828;2023-07-31T09:51:44;6.45;;;1.35;;
72406;SDS011;60396;47.550;18.828;2023-07-31T09:54:12;4.55;;;0.95;;
72406;SDS011;60396;47.550;18.828;2023-07-31T09:56:44;4.27;;;0.90;;
72406;SDS011;60396;47.550;18.828;2023-07-31T09:59:15;6.35;;;0.90;;
72406;SDS011;60396;47.550;18.828;2023-07-31T10:01:46;7.57;;;1.40;;
72406;SDS011;60396;47.550;18.828;2023-07-31T10:04:14;4.43;;;1.05;;
72406;SDS011;60396;47.550;18.828;2023-07-31T10:06:43;4.50;;;0.80;;
72406;SDS011;60396;47.550;18.828;2023-07-31T10:09:11;5.30;;;0.73;;
72406;SDS011;60396;47.550;18.828;2023-07-31T10:11:47;6.47;;;1.00;;
72406;SDS011;60396;47.550;18.828;2023-07-31T10:14:23;7.60;;;1.15;;
72406;SDS011;60396;47.550;18.828;2023-07-31T10:16:51;4.93;;;1.02;;
72406;SDS011;60396;47.550;18.828;2023-07-31T10:19:20;5.75;;;1.00;;
72406;SDS011;60396;47.550;18.828;2023-07-31T10:21:48;5.47;;;1.10;;
72406;SDS011;60396;47.550;18.828;2023-07-31T10:24:16;8.80;;;1.25;;
72406;SDS011;60396;47.550;18.828;2023-07-31T10:26:45;6.40;;;1.45;;
72406;SDS011;60396;47.550;18.828;2023-07-31T10:29:13;7.15;;;1.02;;
72406;SDS011;60396;47.550;18.828;2023-07-31T10:31:43;5.15;;;1.12;;
72406;SDS011;60396;47.550;18.828;2023-07-31T10:34:11;5.27;;;1.00;;
72406;SDS011;60396;47.550;18.828;2023-07-31T10:36:39;4.62;;;0.90;;
72406;SDS011;60396;47.550;18.828;2023-07-31T10:39:32;4.95;;;1.05;;
72406;SDS011;60396;47.550;18.828;2023-07-31T10:42:14;5.22;;;1.23;;
72406;SDS011;60396;47.550;18.828;2023-07-31T10:44:46;6.55;;;1.10;;
72406;SDS011;60396;47.550;18.828;2023-07-31T10:47:14;3.93;;;0.90;;
72406;SDS011;60396;47.550;18.828;2023-07-31T10:49:46;5.40;;;0.95;;
72406;SDS011;60396;47.550;18.828;2023-07-31T10:52:15;4.47;;;1.05;;
72406;SDS011;60396;47.550;18.828;2023-07-31T10:58:07;3.53;;;0.73;;
72406;SDS011;60396;47.550;18.828;2023-07-31T11:00:42;5.00;;;0.90;;
72406;SDS011;60396;47.550;18.828;2023-07-31T11:03:12;6.95;;;1.30;;
72406;SDS011;60396;47.550;18.828;2023-07-31T11:08:35;6.90;;;1.10;;
72406;SDS011;60396;47.550;18.828;2023-07-31T11:11:09;6.35;;;1.10;;
72406;SDS011;60396;47.550;18.828;2023-07-31T11:13:39;6.03;;;1.00;;
72406;SDS011;60396;47.550;18.828;2023-07-31T11:16:12;4.87;;;1.00;;
72406;SDS011;60396;47.550;18.828;2023-07-31T11:18:41;5.15;;;0.90;;
72406;SDS011;60396;47.550;18.828;2023-07-31T11:21:14;5.55;;;1.10;;
72406;SDS011;60396;47.550;18.828;2023-07-31T11:23:51;5.15;;;1.52;;
72406;SDS011;60396;47.550;18.828;2023-07-31T11:26:19;7.83;;;1.07;;
72406;SDS011;60396;47.550;18.828;2023-07-31T11:28:47;5.97;;;1.02;;
72406;SDS011;60396;47.550;18.828;2023-07-31T11:31:16;4.53;;;1.05;;
72406;SDS011;60396;47.550;18.828;2023-07-31T11:33:44;5.85;;;0.95;;
72406;SDS011;60396;47.550;18.828;2023-07-31T11:36:19;5.12;;;1.20;;
72406;SDS011;60396;47.550;18.828;2023-07-31T11:38:47;4.87;;;0.67;;
72406;SDS011;60396;47.550;18.828;2023-07-31T11:41:15;4.57;;;0.70;;
72406;SDS011;60396;47.550;18.828;2023-07-31T11:43:45;4.20;;;0.80;;
72406;SDS011;60396;47.550;18.828;2023-07-31T11:46:13;6.10;;;0.70;;
72406;SDS011;60396;47.550;18.828;2023-07-31T11:48:43;4.95;;;0.98;;
72406;SDS011;60396;47.550;18.828;2023-07-31T11:51:10;5.27;;;0.90;;
72406;SDS011;60396;47.550;18.828;2023-07-31T11:53:47;6.60;;;0.90;;
72406;SDS011;60396;47.550;18.828;2023-07-31T11:56:18;7.50;;;0.82;;
72406;SDS011;60396;47.550;18.828;2023-07-31T11:58:47;5.28;;;0.80;;
72406;SDS011;60396;47.550;18.828;2023-07-31T12:01:18;6.57;;;1.20;;
72406;SDS011;60396;47.550;18.828;2023-07-31T12:03:47;4.63;;;1.00;;
72406;SDS011;60396;47.550;18.828;2023-07-31T12:06:15;8.43;;;1.12;;
72406;SDS011;60396;47.550;18.828;2023-07-31T12:08:43;9.38;;;1.20;;
72406;SDS011;60396;47.550;18.828;2023-07-31T12:11:11;5.25;;;1.10;;
72406;SDS011;60396;47.550;18.828;2023-07-31T12:13:39;4.62;;;1.17;;
72406;SDS011;60396;47.550;18.828;2023-07-31T12:16:06;5.33;;;0.80;;
72406;SDS011;60396;47.550;18.828;2023-07-31T12:18:35;6.82;;;1.08;;
72406;SDS011;60396;47.550;18.828;2023-07-31T12:21:05;5.00;;;1.27;;
72406;SDS011;60396;47.550;18.828;2023-07-31T12:23:34;5.65;;;0.98;;
72406;SDS011;60396;47.550;18.828;2023-07-31T12:26:11;4.62;;;1.20;;
72406;SDS011;60396;47.550;18.828;2023-07-31T12:28:43;6.40;;;1.07;;
72406;SDS011;60396;47.550;18.828;2023-07-31T12:31:13;5.68;;;1.12;;
72406;SDS011;60396;47.550;18.828;2023-07-31T12:33:42;4.95;;;1.20;;
72406;SDS011;60396;47.550;18.828;2023-07-31T12:36:15;5.65;;;1.10;;
72406;SDS011;60396;47.550;18.828;2023-07-31T12:38:44;4.47;;;1.10;;
72406;SDS011;60396;47.550;18.828;2023-07-31T12:41:12;6.23;;;1.30;;
72406;SDS011;60396;47.550;18.828;2023-07-31T12:43:40;4.45;;;1.05;;
72406;SDS011;60396;47.550;18.828;2023-07-31T12:46:10;5.28;;;1.00;;
72406;SDS011;60396;47.550;18.828;2023-07-31T12:48:38;5.90;;;1.10;;
72406;SDS011;60396;47.550;18.828;2023-07-31T12:51:06;4.85;;;1.30;;
72406;SDS011;60396;47.550;18.828;2023-07-31T12:53:35;5.13;;;0.90;;
72406;SDS011;60396;47.550;18.828;2023-07-31T12:56:03;5.80;;;1.23;;
72406;SDS011;60396;47.550;18.828;2023-07-31T12:58:31;6.87;;;1.25;;
72406;SDS011;60396;47.550;18.828;2023-07-31T13:00:59;3.95;;;0.90;;
72406;SDS011;60396;47.550;18.828;2023-07-31T13:03:27;6.43;;;1.40;;
72406;SDS011;60396;47.550;18.828;2023-07-31T13:05:54;6.03;;;1.10;;
72406;SDS011;60396;47.550;18.828;2023-07-31T13:08:22;5.40;;;1.10;;
72406;SDS011;60396;47.550;18.828;2023-07-31T13:10:50;10.52;;;1.40;;
72406;SDS011;60396;47.550;18.828;2023-07-31T13:13:17;4.22;;;1.02;;
72406;SDS011;60396;47.550;18.828;2023-07-31T13:15:45;5.10;;;1.10;;
72406;SDS011;60396;47.550;18.828;2023-07-31T13:18:13;7.73;;;1.20;;
72406;SDS011;60396;47.550;18.828;2023-07-31T13:20:41;6.75;;;1.17;;
72406;SDS011;60396;47.550;18.828;2023-07-31T13:23:09;3.95;;;0.90;;
72406;SDS011;60396;47.550;18.828;2023-07-31T13:25:36;4.78;;;0.90;;
72406;SDS011;60396;47.550;18.828;2023-07-31T13:28:04;5.30;;;1.23;;
72406;SDS011;60396;47.550;18.828;2023-07-31T13:30:32;8.53;;;0.90;;
72406;SDS011;60396;47.550;18.828;2023-07-31T13:33:03;6.37;;;1.12;;
72406;SDS011;60396;47.550;18.828;2023-07-31T13:35:30;10.38;;;1.10;;
72406;SDS011;60396;47.550;18.828;2023-07-31T13:37:59;5.87;;;1.30;;
72406;SDS011;60396;47.550;18.828;2023-07-31T13:40:26;5.37;;;1.27;;
72406;SDS011;60396;47.550;18.828;2023-07-31T13:42:54;4.60;;;1.27;;
72406;SDS011;60396;47.550;18.828;2023-07-31T13:45:23;6.45;;;1.60;;
72406;SDS011;60396;47.550;18.828;2023-07-31T13:47:50;5.72;;;1.20;;
72406;SDS011;60396;47.550;18.828;2023-07-31T13:50:18;6.15;;;1.00;;
72406;SDS011;60396;47.550;18.828;2023-07-31T13:52:48;7.62;;;1.42;;
72406;SDS011;60396;47.550;18.828;2023-07-31T13:55:16;5.97;;;1.03;;
72406;SDS011;60396;47.550;18.828;2023-07-31T13:57:43;7.57;;;0.90;;
72406;SDS011;60396;47.550;18.828;2023-07-31T14:00:11;4.45;;;1.20;;
72406;SDS011;60396;47.550;18.828;2023-07-31T14:02:40;4.12;;;1.20;;
72406;SDS011;60396;47.550;18.828;2023-07-31T14:05:08;4.18;;;1.08;;
72406;SDS011;60396;47.550;18.828;2023-07-31T14:07:36;5.93;;;1.23;;
72406;SDS011;60396;47.550;18.828;2023-07-31T14:10:04;4.35;;;0.98;;
72406;SDS011;60396;47.550;18.828;2023-07-31T14:12:32;5.90;;;1.00;;
72406;SDS011;60396;47.550;18.828;2023-07-31T14:15:10;6.45;;;1.20;;
72406;SDS011;60396;47.550;18.828;2023-07-31T14:17:38;6.32;;;1.10;;
72406;SDS011;60396;47.550;18.828;2023-07-31T14:20:06;3.87;;;0.93;;
72406;SDS011;60396;47.550;18.828;2023-07-31T14:22:37;4.43;;;1.00;;
72406;SDS011;60396;47.550;18.828;2023-07-31T14:25:05;5.00;;;1.25;;
72406;SDS011;60396;47.550;18.828;2023-07-31T14:27:33;6.37;;;1.37;;
72406;SDS011;60396;47.550;18.828;2023-07-31T14:30:01;4.95;;;1.23;;
72406;SDS011;60396;47.550;18.828;2023-07-31T14:32:28;5.33;;;1.00;;
72406;SDS011;60396;47.550;18.828;2023-07-31T14:34:56;6.62;;;1.40;;
72406;SDS011;60396;47.550;18.828;2023-07-31T14:37:27;6.10;;;1.60;;
72406;SDS011;60396;47.550;18.828;2023-07-31T14:40:04;5.15;;;1.20;;
72406;SDS011;60396;47.550;18.828;2023-07-31T14:42:33;5.65;;;1.20;;
72406;SDS011;60396;47.550;18.828;2023-07-31T14:45:02;5.03;;;1.00;;
72406;SDS011;60396;47.550;18.828;2023-07-31T14:47:30;7.22;;;1.17;;
72406;SDS011;60396;47.550;18.828;2023-07-31T14:50:01;7.80;;;1.25;;
72406;SDS011;60396;47.550;18.828;2023-07-31T14:52:29;4.85;;;1.15;;
72406;SDS011;60396;47.550;18.828;2023-07-31T14:54:57;5.37;;;1.08;;
72406;SDS011;60396;47.550;18.828;2023-07-31T14:57:25;5.17;;;1.40;;
72406;SDS011;60396;47.550;18.828;2023-07-31T14:59:54;5.05;;;0.85;;